sensor_id;sensor_type;location;lat;lon;timestamp;P1;durP1;ratioP1;P2;durP2;ratioP2
146;SDS011;45999;48.808;9.182;2022-07-09T00:00:02;6.23;;;3.00;;
146;SDS011;45999;48.808;9.182;2022-07-09T00:02:30;5.07;;;2.90;;
146;SDS011;45999;48.808;9.182;2022-07-09T00:04:56;4.63;;;2.70;;
146;SDS011;45999;48.808;9.182;2022-07-09T00:07:23;9.87;;;2.90;;
146;SDS011;45999;48.808;9.182;2022-07-09T00:09:51;8.63;;;3.00;;
146;SDS011;45999;48.808;9.182;2022-07-09T00:12:18;5.90;;;3.00;;
146;SDS011;45999;48.808;9.182;2022-07-09T00:14:44;8.50;;;2.80;;
146;SDS011;45999;48.808;9.182;2022-07-09T00:17:11;4.20;;;2.80;;
146;SDS011;45999;48.808;9.182;2022-07-09T00:19:38;5.37;;;2.80;;
146;SDS011;45999;48.808;9.182;2022-07-09T00:22:04;5.97;;;3.10;;
146;SDS011;45999;48.808;9.182;2022-07-09T00:24:31;5.67;;;2.70;;
146;SDS011;45999;48.808;9.182;2022-07-09T00:26:58;6.60;;;3.27;;
146;SDS011;45999;48.808;9.182;2022-07-09T00:29:24;4.87;;;2.80;;
146;SDS011;45999;48.808;9.182;2022-07-09T00:31:51;3.40;;;2.57;;
146;SDS011;45999;48.808;9.182;2022-07-09T00:34:17;6.67;;;2.77;;
146;SDS011;45999;48.808;9.182;2022-07-09T00:36:43;5.07;;;3.00;;
146;SDS011;45999;48.808;9.182;2022-07-09T00:39:10;5.57;;;3.00;;
146;SDS011;45999;48.808;9.182;2022-07-09T00:41:36;5.73;;;2.90;;
146;SDS011;45999;48.808;9.182;2022-07-09T00:44:03;7.40;;;2.70;;
146;SDS011;45999;48.808;9.182;2022-07-09T00:46:29;5.77;;;3.30;;
146;SDS011;45999;48.808;9.182;2022-07-09T00:48:55;4.93;;;3.07;;
146;SDS011;45999;48.808;9.182;2022-07-09T00:51:22;4.73;;;3.00;;
146;SDS011;45999;48.808;9.182;2022-07-09T00:53:48;5.43;;;2.80;;
146;SDS011;45999;48.808;9.182;2022-07-09T00:56:16;6.90;;;3.00;;
146;SDS011;45999;48.808;9.182;2022-07-09T00:58:42;6.23;;;2.77;;
146;SDS011;45999;48.808;9.182;2022-07-09T01:01:11;4.77;;;2.93;;
146;SDS011;45999;48.808;9.182;2022-07-09T01:03:37;6.43;;;3.20;;
146;SDS011;45999;48.808;9.182;2022-07-09T01:06:04;5.23;;;3.00;;
146;SDS011;45999;48.808;9.182;2022-07-09T01:08:30;7.33;;;3.17;;
146;SDS011;45999;48.808;9.182;2022-07-09T01:10:57;6.47;;;2.87;;
146;SDS011;45999;48.808;9.182;2022-07-09T01:13:24;8.67;;;2.83;;
146;SDS011;45999;48.808;9.182;2022-07-09T01:15:51;7.53;;;3.03;;
146;SDS011;45999;48.808;9.182;2022-07-09T01:18:17;6.90;;;3.13;;
146;SDS011;45999;48.808;9.182;2022-07-09T01:20:44;4.33;;;3.00;;
146;SDS011;45999;48.808;9.182;2022-07-09T01:23:11;6.20;;;3.23;;
146;SDS011;45999;48.808;9.182;2022-07-09T01:25:39;6.93;;;3.40;;
146;SDS011;45999;48.808;9.182;2022-07-09T01:28:08;3.93;;;2.90;;
146;SDS011;45999;48.808;9.182;2022-07-09T01:30:36;4.80;;;3.30;;
146;SDS011;45999;48.808;9.182;2022-07-09T01:33:03;5.73;;;3.13;;
146;SDS011;45999;48.808;9.182;2022-07-09T01:35:30;7.27;;;3.27;;
146;SDS011;45999;48.808;9.182;2022-07-09T01:37:56;7.83;;;3.60;;
146;SDS011;45999;48.808;9.182;2022-07-09T01:40:23;6.57;;;3.13;;
146;SDS011;45999;48.808;9.182;2022-07-09T01:42:50;9.33;;;3.60;;
146;SDS011;45999;48.808;9.182;2022-07-09T01:45:16;7.47;;;3.50;;
146;SDS011;45999;48.808;9.182;2022-07-09T01:47:43;8.37;;;3.73;;
146;SDS011;45999;48.808;9.182;2022-07-09T01:50:09;6.17;;;3.70;;
146;SDS011;45999;48.808;9.182;2022-07-09T01:52:36;4.10;;;3.27;;
146;SDS011;45999;48.808;9.182;2022-07-09T01:55:03;4.20;;;3.00;;
146;SDS011;45999;48.808;9.182;2022-07-09T01:57:30;6.37;;;3.17;;
146;SDS011;45999;48.808;9.182;2022-07-09T01:59:56;8.10;;;3.50;;
146;SDS011;45999;48.808;9.182;2022-07-09T02:02:22;6.87;;;3.27;;
146;SDS011;45999;48.808;9.182;2022-07-09T02:04:49;7.87;;;3.30;;
146;SDS011;45999;48.808;9.182;2022-07-09T02:07:15;6.53;;;3.10;;
146;SDS011;45999;48.808;9.182;2022-07-09T02:09:42;3.40;;;2.93;;
146;SDS011;45999;48.808;9.182;2022-07-09T02:12:08;7.67;;;3.20;;
146;SDS011;45999;48.808;9.182;2022-07-09T02:14:35;5.90;;;3.20;;
146;SDS011;45999;48.808;9.182;2022-07-09T02:17:02;4.43;;;2.90;;
146;SDS011;45999;48.808;9.182;2022-07-09T02:19:29;6.20;;;3.37;;
146;SDS011;45999;48.808;9.182;2022-07-09T02:21:55;6.53;;;3.63;;
146;SDS011;45999;48.808;9.182;2022-07-09T02:24:22;4.63;;;3.10;;
146;SDS011;45999;48.808;9.182;2022-07-09T02:26:48;8.07;;;3.00;;
146;SDS011;45999;48.808;9.182;2022-07-09T02:29:14;4.63;;;2.60;;
146;SDS011;45999;48.808;9.182;2022-07-09T02:31:41;4.70;;;3.20;;
146;SDS011;45999;48.808;9.182;2022-07-09T02:34:07;5.80;;;3.13;;
146;SDS011;45999;48.808;9.182;2022-07-09T02:36:33;5.40;;;3.40;;
146;SDS011;45999;48.808;9.182;2022-07-09T02:39:00;6.17;;;2.83;;
146;SDS011;45999;48.808;9.182;2022-07-09T02:41:26;6.20;;;3.30;;
146;SDS011;45999;48.808;9.182;2022-07-09T02:43:53;3.90;;;3.10;;
146;SDS011;45999;48.808;9.182;2022-07-09T02:46:19;4.83;;;3.20;;
146;SDS011;45999;48.808;9.182;2022-07-09T02:48:45;3.70;;;2.90;;
146;SDS011;45999;48.808;9.182;2022-07-09T02:51:12;3.50;;;2.73;;
146;SDS011;45999;48.808;9.182;2022-07-09T02:53:38;6.20;;;3.23;;
146;SDS011;45999;48.808;9.182;2022-07-09T02:56:05;6.67;;;3.00;;
146;SDS011;45999;48.808;9.182;2022-07-09T02:58:31;5.87;;;3.13;;
146;SDS011;45999;48.808;9.182;2022-07-09T03:00:58;4.17;;;2.77;;
146;SDS011;45999;48.808;9.182;2022-07-09T03:03:24;5.17;;;3.13;;
146;SDS011;45999;48.808;9.182;2022-07-09T03:05:51;4.93;;;3.03;;
146;SDS011;45999;48.808;9.182;2022-07-09T03:08:18;5.57;;;2.87;;
146;SDS011;45999;48.808;9.182;2022-07-09T03:10:46;6.63;;;3.20;;
146;SDS011;45999;48.808;9.182;2022-07-09T03:13:14;5.40;;;2.90;;
146;SDS011;45999;48.808;9.182;2022-07-09T03:15:41;7.23;;;3.20;;
146;SDS011;45999;48.808;9.182;2022-07-09T03:18:07;4.70;;;2.60;;
146;SDS011;45999;48.808;9.182;2022-07-09T03:20:34;5.40;;;2.90;;
146;SDS011;45999;48.808;9.182;2022-07-09T03:23:02;5.67;;;2.83;;
146;SDS011;45999;48.808;9.182;2022-07-09T03:25:29;7.17;;;3.03;;
146;SDS011;45999;48.808;9.182;2022-07-09T03:27:56;4.97;;;2.50;;
146;SDS011;45999;48.808;9.182;2022-07-09T03:30:22;5.30;;;3.37;;
146;SDS011;45999;48.808;9.182;2022-07-09T03:32:49;6.90;;;3.17;;
146;SDS011;45999;48.808;9.182;2022-07-09T03:35:16;6.77;;;3.80;;
146;SDS011;45999;48.808;9.182;2022-07-09T03:37:43;6.50;;;3.03;;
146;SDS011;45999;48.808;9.182;2022-07-09T03:40:09;4.93;;;3.37;;
146;SDS011;45999;48.808;9.182;2022-07-09T03:42:36;4.47;;;3.17;;
146;SDS011;45999;48.808;9.182;2022-07-09T03:45:03;3.60;;;2.90;;
146;SDS011;45999;48.808;9.182;2022-07-09T03:47:29;5.23;;;3.50;;
146;SDS011;45999;48.808;9.182;2022-07-09T03:49:56;3.60;;;3.30;;
146;SDS011;45999;48.808;9.182;2022-07-09T03:52:22;4.37;;;2.90;;
146;SDS011;45999;48.808;9.182;2022-07-09T03:54:48;5.77;;;3.10;;
146;SDS011;45999;48.808;9.182;2022-07-09T03:57:15;6.10;;;3.17;;
146;SDS011;45999;48.808;9.182;2022-07-09T03:59:41;4.63;;;3.00;;
146;SDS011;45999;48.808;9.182;2022-07-09T04:02:08;6.17;;;3.10;;
146;SDS011;45999;48.808;9.182;2022-07-09T04:04:34;4.77;;;2.80;;
146;SDS011;45999;48.808;9.182;2022-07-09T04:07:00;5.20;;;3.20;;
146;SDS011;45999;48.808;9.182;2022-07-09T04:09:27;4.60;;;3.03;;
146;SDS011;45999;48.808;9.182;2022-07-09T04:11:53;7.83;;;3.73;;
146;SDS011;45999;48.808;9.182;2022-07-09T04:14:19;5.80;;;3.43;;
146;SDS011;45999;48.808;9.182;2022-07-09T04:16:46;5.03;;;3.37;;
146;SDS011;45999;48.808;9.182;2022-07-09T04:19:12;4.50;;;2.80;;
146;SDS011;45999;48.808;9.182;2022-07-09T04:21:39;4.73;;;3.13;;
146;SDS011;45999;48.808;9.182;2022-07-09T04:24:06;4.70;;;3.00;;
146;SDS011;45999;48.808;9.182;2022-07-09T04:26:32;3.83;;;2.93;;
146;SDS011;45999;48.808;9.182;2022-07-09T04:28:58;4.83;;;3.40;;
146;SDS011;45999;48.808;9.182;2022-07-09T04:31:25;6.93;;;3.00;;
146;SDS011;45999;48.808;9.182;2022-07-09T04:33:51;4.80;;;3.30;;
146;SDS011;45999;48.808;9.182;2022-07-09T04:36:18;3.50;;;2.57;;
146;SDS011;45999;48.808;9.182;2022-07-09T04:38:44;4.63;;;2.97;;
146;SDS011;45999;48.808;9.182;2022-07-09T04:41:10;4.97;;;2.80;;
146;SDS011;45999;48.808;9.182;2022-07-09T04:43:37;3.10;;;2.70;;
146;SDS011;45999;48.808;9.182;2022-07-09T04:46:03;3.87;;;2.93;;
146;SDS011;45999;48.808;9.182;2022-07-09T04:48:30;4.87;;;2.90;;
146;SDS011;45999;48.808;9.182;2022-07-09T04:50:56;4.93;;;2.77;;
146;SDS011;45999;48.808;9.182;2022-07-09T04:53:23;6.07;;;2.90;;
146;SDS011;45999;48.808;9.182;2022-07-09T04:55:49;4.27;;;2.90;;
146;SDS011;45999;48.808;9.182;2022-07-09T04:58:16;4.77;;;3.13;;
146;SDS011;45999;48.808;9.182;2022-07-09T05:00:42;6.00;;;3.00;;
146;SDS011;45999;48.808;9.182;2022-07-09T05:03:09;5.00;;;3.13;;
146;SDS011;45999;48.808;9.182;2022-07-09T05:05:35;5.47;;;3.00;;
146;SDS011;45999;48.808;9.182;2022-07-09T05:08:02;7.80;;;3.17;;
146;SDS011;45999;48.808;9.182;2022-07-09T05:10:28;7.50;;;3.50;;
146;SDS011;45999;48.808;9.182;2022-07-09T05:12:55;4.20;;;2.63;;
146;SDS011;45999;48.808;9.182;2022-07-09T05:15:21;5.73;;;3.00;;
146;SDS011;45999;48.808;9.182;2022-07-09T05:17:48;5.70;;;3.20;;
146;SDS011;45999;48.808;9.182;2022-07-09T05:20:14;5.23;;;3.00;;
146;SDS011;45999;48.808;9.182;2022-07-09T05:22:42;4.27;;;3.00;;
146;SDS011;45999;48.808;9.182;2022-07-09T05:25:08;5.13;;;2.90;;
146;SDS011;45999;48.808;9.182;2022-07-09T05:27:42;4.70;;;2.90;;
146;SDS011;45999;48.808;9.182;2022-07-09T05:30:10;5.50;;;3.10;;
146;SDS011;45999;48.808;9.182;2022-07-09T05:32:39;6.97;;;2.90;;
146;SDS011;45999;48.808;9.182;2022-07-09T05:35:06;5.67;;;3.03;;
146;SDS011;45999;48.808;9.182;2022-07-09T05:37:34;7.30;;;3.07;;
146;SDS011;45999;48.808;9.182;2022-07-09T05:40:07;4.60;;;3.00;;
146;SDS011;45999;48.808;9.182;2022-07-09T05:42:33;6.37;;;3.00;;
146;SDS011;45999;48.808;9.182;2022-07-09T05:45:00;4.83;;;3.20;;
146;SDS011;45999;48.808;9.182;2022-07-09T05:47:26;7.43;;;3.40;;
146;SDS011;45999;48.808;9.182;2022-07-09T05:49:53;8.47;;;3.50;;
146;SDS011;45999;48.808;9.182;2022-07-09T05:52:19;3.57;;;3.00;;
146;SDS011;45999;48.808;9.182;2022-07-09T05:54:46;4.80;;;3.07;;
146;SDS011;45999;48.808;9.182;2022-07-09T05:57:12;6.87;;;3.33;;
146;SDS011;45999;48.808;9.182;2022-07-09T05:59:38;5.13;;;3.10;;
146;SDS011;45999;48.808;9.182;2022-07-09T06:02:05;4.20;;;2.77;;
146;SDS011;45999;48.808;9.182;2022-07-09T06:04:32;3.93;;;3.00;;
146;SDS011;45999;48.808;9.182;2022-07-09T06:06:58;5.60;;;2.90;;
146;SDS011;45999;48.808;9.182;2022-07-09T06:09:24;5.43;;;2.83;;
146;SDS011;45999;48.808;9.182;2022-07-09T06:11:51;6.37;;;3.20;;
146;SDS011;45999;48.808;9.182;2022-07-09T06:14:17;4.53;;;3.07;;
146;SDS011;45999;48.808;9.182;2022-07-09T06:16:44;4.03;;;2.70;;
146;SDS011;45999;48.808;9.182;2022-07-09T06:19:12;4.50;;;3.03;;
146;SDS011;45999;48.808;9.182;2022-07-09T06:21:39;6.77;;;2.80;;
146;SDS011;45999;48.808;9.182;2022-07-09T06:24:06;5.40;;;3.03;;
146;SDS011;45999;48.808;9.182;2022-07-09T06:26:33;8.03;;;3.00;;
146;SDS011;45999;48.808;9.182;2022-07-09T06:28:59;4.70;;;2.83;;
146;SDS011;45999;48.808;9.182;2022-07-09T06:31:26;5.60;;;2.60;;
146;SDS011;45999;48.808;9.182;2022-07-09T06:33:52;3.93;;;2.47;;
146;SDS011;45999;48.808;9.182;2022-07-09T06:36:19;4.07;;;2.47;;
146;SDS011;45999;48.808;9.182;2022-07-09T06:38:45;3.93;;;2.30;;
146;SDS011;45999;48.808;9.182;2022-07-09T06:41:29;5.00;;;2.63;;
146;SDS011;45999;48.808;9.182;2022-07-09T06:43:55;4.77;;;2.40;;
146;SDS011;45999;48.808;9.182;2022-07-09T06:46:22;4.13;;;2.20;;
146;SDS011;45999;48.808;9.182;2022-07-09T06:48:48;5.30;;;2.50;;
146;SDS011;45999;48.808;9.182;2022-07-09T06:51:14;3.70;;;2.50;;
146;SDS011;45999;48.808;9.182;2022-07-09T06:53:41;4.63;;;2.30;;
146;SDS011;45999;48.808;9.182;2022-07-09T06:56:07;4.20;;;2.70;;
146;SDS011;45999;48.808;9.182;2022-07-09T06:58:34;6.93;;;2.87;;
146;SDS011;45999;48.808;9.182;2022-07-09T07:01:00;5.77;;;2.60;;
146;SDS011;45999;48.808;9.182;2022-07-09T07:03:26;6.73;;;3.10;;
146;SDS011;45999;48.808;9.182;2022-07-09T07:05:53;3.90;;;2.77;;
146;SDS011;45999;48.808;9.182;2022-07-09T07:08:19;3.73;;;2.33;;
146;SDS011;45999;48.808;9.182;2022-07-09T07:10:45;4.90;;;2.67;;
146;SDS011;45999;48.808;9.182;2022-07-09T07:13:12;5.77;;;2.90;;
146;SDS011;45999;48.808;9.182;2022-07-09T07:15:38;4.93;;;2.70;;
146;SDS011;45999;48.808;9.182;2022-07-09T07:18:05;5.30;;;2.87;;
146;SDS011;45999;48.808;9.182;2022-07-09T07:20:31;4.97;;;2.83;;
146;SDS011;45999;48.808;9.182;2022-07-09T07:22:57;5.33;;;2.47;;
146;SDS011;45999;48.808;9.182;2022-07-09T07:25:24;2.90;;;2.20;;
146;SDS011;45999;48.808;9.182;2022-07-09T07:27:51;5.00;;;2.27;;
146;SDS011;45999;48.808;9.182;2022-07-09T07:30:17;5.00;;;2.57;;
146;SDS011;45999;48.808;9.182;2022-07-09T07:32:43;5.30;;;2.43;;
146;SDS011;45999;48.808;9.182;2022-07-09T07:35:10;6.07;;;2.40;;
146;SDS011;45999;48.808;9.182;2022-07-09T07:37:36;5.67;;;2.77;;
146;SDS011;45999;48.808;9.182;2022-07-09T07:40:03;5.13;;;3.00;;
146;SDS011;45999;48.808;9.182;2022-07-09T07:42:30;5.50;;;2.60;;
146;SDS011;45999;48.808;9.182;2022-07-09T07:44:56;2.83;;;2.30;;
146;SDS011;45999;48.808;9.182;2022-07-09T07:47:22;3.30;;;2.47;;
146;SDS011;45999;48.808;9.182;2022-07-09T07:49:49;4.23;;;2.23;;
146;SDS011;45999;48.808;9.182;2022-07-09T07:52:16;7.33;;;2.40;;
146;SDS011;45999;48.808;9.182;2022-07-09T07:54:43;5.67;;;2.40;;
146;SDS011;45999;48.808;9.182;2022-07-09T07:57:09;4.20;;;2.20;;
146;SDS011;45999;48.808;9.182;2022-07-09T07:59:36;7.27;;;2.10;;
146;SDS011;45999;48.808;9.182;2022-07-09T08:02:02;5.30;;;2.30;;
146;SDS011;45999;48.808;9.182;2022-07-09T08:04:29;3.40;;;2.20;;
146;SDS011;45999;48.808;9.182;2022-07-09T08:06:56;5.73;;;2.53;;
146;SDS011;45999;48.808;9.182;2022-07-09T08:09:22;3.80;;;2.00;;
146;SDS011;45999;48.808;9.182;2022-07-09T08:11:49;6.13;;;2.53;;
146;SDS011;45999;48.808;9.182;2022-07-09T08:14:15;3.27;;;1.97;;
146;SDS011;45999;48.808;9.182;2022-07-09T08:16:42;6.03;;;2.20;;
146;SDS011;45999;48.808;9.182;2022-07-09T08:19:08;2.77;;;1.93;;
146;SDS011;45999;48.808;9.182;2022-07-09T08:21:34;4.60;;;1.70;;
146;SDS011;45999;48.808;9.182;2022-07-09T08:24:01;6.37;;;2.10;;
146;SDS011;45999;48.808;9.182;2022-07-09T08:26:29;3.17;;;2.23;;
146;SDS011;45999;48.808;9.182;2022-07-09T08:28:56;5.77;;;1.90;;
146;SDS011;45999;48.808;9.182;2022-07-09T08:31:22;2.97;;;1.80;;
146;SDS011;45999;48.808;9.182;2022-07-09T08:33:50;5.10;;;2.40;;
146;SDS011;45999;48.808;9.182;2022-07-09T08:36:16;5.40;;;2.03;;
146;SDS011;45999;48.808;9.182;2022-07-09T08:38:43;3.90;;;2.23;;
146;SDS011;45999;48.808;9.182;2022-07-09T08:41:12;2.80;;;1.40;;
146;SDS011;45999;48.808;9.182;2022-07-09T08:43:40;3.73;;;1.60;;
146;SDS011;45999;48.808;9.182;2022-07-09T08:46:07;5.00;;;1.80;;
146;SDS011;45999;48.808;9.182;2022-07-09T08:48:34;3.60;;;1.57;;
146;SDS011;45999;48.808;9.182;2022-07-09T08:51:02;4.00;;;1.90;;
146;SDS011;45999;48.808;9.182;2022-07-09T08:53:29;2.47;;;1.23;;
146;SDS011;45999;48.808;9.182;2022-07-09T08:55:56;4.47;;;1.40;;
146;SDS011;45999;48.808;9.182;2022-07-09T08:58:23;3.73;;;1.50;;
146;SDS011;45999;48.808;9.182;2022-07-09T09:00:50;4.47;;;1.50;;
146;SDS011;45999;48.808;9.182;2022-07-09T09:03:17;2.30;;;1.57;;
146;SDS011;45999;48.808;9.182;2022-07-09T09:05:44;5.17;;;1.60;;
146;SDS011;45999;48.808;9.182;2022-07-09T09:08:20;3.97;;;1.80;;
146;SDS011;45999;48.808;9.182;2022-07-09T09:10:48;3.33;;;1.50;;
146;SDS011;45999;48.808;9.182;2022-07-09T09:13:16;5.17;;;1.80;;
146;SDS011;45999;48.808;9.182;2022-07-09T09:15:43;3.67;;;1.50;;
146;SDS011;45999;48.808;9.182;2022-07-09T09:18:10;2.27;;;1.30;;
146;SDS011;45999;48.808;9.182;2022-07-09T09:20:37;3.53;;;1.40;;
146;SDS011;45999;48.808;9.182;2022-07-09T09:23:04;4.33;;;1.37;;
146;SDS011;45999;48.808;9.182;2022-07-09T09:25:36;2.27;;;1.43;;
146;SDS011;45999;48.808;9.182;2022-07-09T09:28:03;1.65;;;1.33;;
146;SDS011;45999;48.808;9.182;2022-07-09T09:30:29;4.83;;;1.57;;
146;SDS011;45999;48.808;9.182;2022-07-09T09:33:00;3.72;;;2.22;;
146;SDS011;45999;48.808;9.182;2022-07-09T09:35:29;2.90;;;1.33;;
146;SDS011;45999;48.808;9.182;2022-07-09T09:37:59;3.03;;;1.33;;
146;SDS011;45999;48.808;9.182;2022-07-09T09:40:25;2.28;;;1.48;;
146;SDS011;45999;48.808;9.182;2022-07-09T09:42:52;2.45;;;1.42;;
146;SDS011;45999;48.808;9.182;2022-07-09T09:45:21;3.42;;;1.42;;
146;SDS011;45999;48.808;9.182;2022-07-09T09:47:49;3.80;;;2.30;;
146;SDS011;45999;48.808;9.182;2022-07-09T09:50:20;5.32;;;1.85;;
146;SDS011;45999;48.808;9.182;2022-07-09T09:52:49;2.08;;;1.38;;
146;SDS011;45999;48.808;9.182;2022-07-09T09:55:18;2.25;;;1.30;;
146;SDS011;45999;48.808;9.182;2022-07-09T09:57:45;3.28;;;2.10;;
146;SDS011;45999;48.808;9.182;2022-07-09T10:00:12;3.05;;;1.33;;
146;SDS011;45999;48.808;9.182;2022-07-09T10:02:42;4.20;;;1.23;;
146;SDS011;45999;48.808;9.182;2022-07-09T10:05:10;2.67;;;1.48;;
146;SDS011;45999;48.808;9.182;2022-07-09T10:07:37;1.50;;;1.30;;
146;SDS011;45999;48.808;9.182;2022-07-09T10:10:05;3.40;;;1.50;;
146;SDS011;45999;48.808;9.182;2022-07-09T10:12:33;1.67;;;1.20;;
146;SDS011;45999;48.808;9.182;2022-07-09T10:15:00;4.00;;;1.70;;
146;SDS011;45999;48.808;9.182;2022-07-09T10:17:38;1.92;;;1.33;;
146;SDS011;45999;48.808;9.182;2022-07-09T10:20:06;1.90;;;1.30;;
146;SDS011;45999;48.808;9.182;2022-07-09T10:22:38;2.35;;;1.30;;
146;SDS011;45999;48.808;9.182;2022-07-09T10:25:10;6.22;;;3.28;;
146;SDS011;45999;48.808;9.182;2022-07-09T10:27:54;2.78;;;1.55;;
146;SDS011;45999;48.808;9.182;2022-07-09T10:30:30;2.70;;;1.20;;
146;SDS011;45999;48.808;9.182;2022-07-09T10:33:11;2.28;;;1.10;;
146;SDS011;45999;48.808;9.182;2022-07-09T10:35:42;1.90;;;1.20;;
146;SDS011;45999;48.808;9.182;2022-07-09T10:38:16;3.38;;;1.33;;
146;SDS011;45999;48.808;9.182;2022-07-09T10:40:47;1.85;;;1.10;;
146;SDS011;45999;48.808;9.182;2022-07-09T10:43:36;1.38;;;1.20;;
146;SDS011;45999;48.808;9.182;2022-07-09T10:46:13;1.42;;;1.05;;
146;SDS011;45999;48.808;9.182;2022-07-09T10:48:40;2.83;;;1.02;;
146;SDS011;45999;48.808;9.182;2022-07-09T10:51:07;2.92;;;2.63;;
146;SDS011;45999;48.808;9.182;2022-07-09T10:53:34;3.22;;;1.23;;
146;SDS011;45999;48.808;9.182;2022-07-09T10:56:00;2.55;;;1.20;;
146;SDS011;45999;48.808;9.182;2022-07-09T10:58:27;3.40;;;1.48;;
146;SDS011;45999;48.808;9.182;2022-07-09T11:00:57;4.28;;;1.55;;
146;SDS011;45999;48.808;9.182;2022-07-09T11:03:25;2.60;;;1.40;;
146;SDS011;45999;48.808;9.182;2022-07-09T11:05:56;2.17;;;1.40;;
146;SDS011;45999;48.808;9.182;2022-07-09T11:08:23;1.90;;;1.60;;
146;SDS011;45999;48.808;9.182;2022-07-09T11:10:50;1.85;;;1.27;;
146;SDS011;45999;48.808;9.182;2022-07-09T11:13:16;3.70;;;1.30;;
146;SDS011;45999;48.808;9.182;2022-07-09T11:15:43;2.72;;;1.63;;
146;SDS011;45999;48.808;9.182;2022-07-09T11:18:12;1.42;;;1.08;;
146;SDS011;45999;48.808;9.182;2022-07-09T11:20:40;2.75;;;1.30;;
146;SDS011;45999;48.808;9.182;2022-07-09T11:23:08;1.65;;;1.40;;
146;SDS011;45999;48.808;9.182;2022-07-09T11:25:35;2.35;;;1.20;;
146;SDS011;45999;48.808;9.182;2022-07-09T11:28:01;2.13;;;1.58;;
146;SDS011;45999;48.808;9.182;2022-07-09T11:30:28;1.80;;;1.40;;
146;SDS011;45999;48.808;9.182;2022-07-09T11:32:57;4.35;;;1.30;;
146;SDS011;45999;48.808;9.182;2022-07-09T11:35:31;3.90;;;1.00;;
146;SDS011;45999;48.808;9.182;2022-07-09T11:37:59;1.85;;;1.13;;
146;SDS011;45999;48.808;9.182;2022-07-09T11:40:28;2.17;;;1.20;;
146;SDS011;45999;48.808;9.182;2022-07-09T11:42:55;1.60;;;1.30;;
146;SDS011;45999;48.808;9.182;2022-07-09T11:45:23;3.45;;;1.90;;
146;SDS011;45999;48.808;9.182;2022-07-09T11:50:31;3.95;;;1.00;;
146;SDS011;45999;48.808;9.182;2022-07-09T11:52:58;1.30;;;1.20;;
146;SDS011;45999;48.808;9.182;2022-07-09T11:55:29;1.55;;;1.20;;
146;SDS011;45999;48.808;9.182;2022-07-09T11:57:57;2.88;;;1.20;;
146;SDS011;45999;48.808;9.182;2022-07-09T12:00:34;1.52;;;1.10;;
146;SDS011;45999;48.808;9.182;2022-07-09T12:03:05;3.42;;;2.25;;
146;SDS011;45999;48.808;9.182;2022-07-09T12:05:35;1.33;;;1.20;;
146;SDS011;45999;48.808;9.182;2022-07-09T12:08:05;1.85;;;1.20;;
146;SDS011;45999;48.808;9.182;2022-07-09T12:10:36;2.05;;;1.30;;
146;SDS011;45999;48.808;9.182;2022-07-09T12:13:05;2.15;;;1.40;;
146;SDS011;45999;48.808;9.182;2022-07-09T12:15:34;4.03;;;1.88;;
146;SDS011;45999;48.808;9.182;2022-07-09T12:18:01;9.52;;;8.55;;
146;SDS011;45999;48.808;9.182;2022-07-09T12:20:29;1.58;;;1.30;;
146;SDS011;45999;48.808;9.182;2022-07-09T12:22:56;2.28;;;1.40;;
146;SDS011;45999;48.808;9.182;2022-07-09T12:25:23;1.60;;;1.25;;
146;SDS011;45999;48.808;9.182;2022-07-09T12:27:50;1.67;;;1.20;;
146;SDS011;45999;48.808;9.182;2022-07-09T12:30:17;3.22;;;1.42;;
146;SDS011;45999;48.808;9.182;2022-07-09T12:32:44;2.47;;;1.50;;
146;SDS011;45999;48.808;9.182;2022-07-09T12:35:11;1.25;;;1.15;;
146;SDS011;45999;48.808;9.182;2022-07-09T12:37:37;2.50;;;1.50;;
146;SDS011;45999;48.808;9.182;2022-07-09T12:40:05;3.85;;;1.35;;
146;SDS011;45999;48.808;9.182;2022-07-09T12:42:34;1.48;;;1.15;;
146;SDS011;45999;48.808;9.182;2022-07-09T12:45:01;1.70;;;1.17;;
146;SDS011;45999;48.808;9.182;2022-07-09T12:47:27;2.72;;;1.20;;
146;SDS011;45999;48.808;9.182;2022-07-09T12:49:54;1.88;;;1.48;;
146;SDS011;45999;48.808;9.182;2022-07-09T12:52:21;3.05;;;1.30;;
146;SDS011;45999;48.808;9.182;2022-07-09T12:54:47;2.83;;;1.30;;
146;SDS011;45999;48.808;9.182;2022-07-09T12:57:13;3.05;;;1.50;;
146;SDS011;45999;48.808;9.182;2022-07-09T12:59:40;2.42;;;1.85;;
146;SDS011;45999;48.808;9.182;2022-07-09T13:02:06;2.95;;;2.65;;
146;SDS011;45999;48.808;9.182;2022-07-09T13:04:33;2.13;;;1.52;;
146;SDS011;45999;48.808;9.182;2022-07-09T13:07:00;1.60;;;1.25;;
146;SDS011;45999;48.808;9.182;2022-07-09T13:09:27;2.00;;;1.40;;
146;SDS011;45999;48.808;9.182;2022-07-09T13:11:53;2.78;;;2.25;;
146;SDS011;45999;48.808;9.182;2022-07-09T13:14:20;1.98;;;1.10;;
146;SDS011;45999;48.808;9.182;2022-07-09T13:16:46;3.85;;;1.40;;
146;SDS011;45999;48.808;9.182;2022-07-09T13:19:12;5.50;;;2.00;;
146;SDS011;45999;48.808;9.182;2022-07-09T13:21:39;3.88;;;1.92;;
146;SDS011;45999;48.808;9.182;2022-07-09T13:24:05;3.65;;;1.40;;
146;SDS011;45999;48.808;9.182;2022-07-09T13:26:32;1.80;;;1.30;;
146;SDS011;45999;48.808;9.182;2022-07-09T13:28:58;1.88;;;1.20;;
146;SDS011;45999;48.808;9.182;2022-07-09T13:31:24;1.98;;;1.20;;
146;SDS011;45999;48.808;9.182;2022-07-09T13:33:51;2.35;;;1.20;;
146;SDS011;45999;48.808;9.182;2022-07-09T13:36:17;1.38;;;1.02;;
146;SDS011;45999;48.808;9.182;2022-07-09T13:38:44;2.72;;;1.40;;
146;SDS011;45999;48.808;9.182;2022-07-09T13:41:11;2.40;;;1.30;;
146;SDS011;45999;48.808;9.182;2022-07-09T13:43:37;1.83;;;1.10;;
146;SDS011;45999;48.808;9.182;2022-07-09T13:46:04;1.95;;;1.05;;
146;SDS011;45999;48.808;9.182;2022-07-09T13:48:32;1.73;;;1.60;;
146;SDS011;45999;48.808;9.182;2022-07-09T13:50:58;1.27;;;1.17;;
146;SDS011;45999;48.808;9.182;2022-07-09T13:53:25;2.25;;;1.20;;
146;SDS011;45999;48.808;9.182;2022-07-09T13:55:53;1.15;;;1.00;;
146;SDS011;45999;48.808;9.182;2022-07-09T13:58:20;2.15;;;0.95;;
146;SDS011;45999;48.808;9.182;2022-07-09T14:00:46;1.90;;;1.70;;
146;SDS011;45999;48.808;9.182;2022-07-09T14:03:12;2.00;;;1.20;;
146;SDS011;45999;48.808;9.182;2022-07-09T14:05:39;1.15;;;1.00;;
146;SDS011;45999;48.808;9.182;2022-07-09T14:08:05;2.42;;;2.20;;
146;SDS011;45999;48.808;9.182;2022-07-09T14:10:32;2.30;;;1.20;;
146;SDS011;45999;48.808;9.182;2022-07-09T14:12:59;2.90;;;1.40;;
146;SDS011;45999;48.808;9.182;2022-07-09T14:15:26;1.63;;;1.35;;
146;SDS011;45999;48.808;9.182;2022-07-09T14:17:52;2.90;;;2.05;;
146;SDS011;45999;48.808;9.182;2022-07-09T14:20:19;2.03;;;1.55;;
146;SDS011;45999;48.808;9.182;2022-07-09T14:22:46;2.15;;;1.70;;
146;SDS011;45999;48.808;9.182;2022-07-09T14:25:12;1.95;;;1.27;;
146;SDS011;45999;48.808;9.182;2022-07-09T14:27:39;1.95;;;1.30;;
146;SDS011;45999;48.808;9.182;2022-07-09T14:30:06;1.60;;;1.27;;
146;SDS011;45999;48.808;9.182;2022-07-09T14:32:34;2.72;;;1.38;;
146;SDS011;45999;48.808;9.182;2022-07-09T14:35:00;4.55;;;1.27;;
146;SDS011;45999;48.808;9.182;2022-07-09T14:37:27;2.15;;;1.33;;
146;SDS011;45999;48.808;9.182;2022-07-09T14:39:54;1.55;;;1.10;;
146;SDS011;45999;48.808;9.182;2022-07-09T14:42:21;1.40;;;1.30;;
146;SDS011;45999;48.808;9.182;2022-07-09T14:44:48;2.35;;;1.35;;
146;SDS011;45999;48.808;9.182;2022-07-09T14:47:16;2.80;;;1.90;;
146;SDS011;45999;48.808;9.182;2022-07-09T14:49:42;1.33;;;1.23;;
146;SDS011;45999;48.808;9.182;2022-07-09T14:52:12;1.75;;;1.15;;
146;SDS011;45999;48.808;9.182;2022-07-09T14:54:40;1.40;;;1.30;;
146;SDS011;45999;48.808;9.182;2022-07-09T14:57:06;1.65;;;1.10;;
146;SDS011;45999;48.808;9.182;2022-07-09T14:59:33;1.45;;;1.33;;
146;SDS011;45999;48.808;9.182;2022-07-09T15:01:59;5.20;;;2.20;;
146;SDS011;45999;48.808;9.182;2022-07-09T15:04:26;2.63;;;1.42;;
146;SDS011;45999;48.808;9.182;2022-07-09T15:06:52;2.25;;;2.00;;
146;SDS011;45999;48.808;9.182;2022-07-09T15:09:18;3.40;;;2.55;;
146;SDS011;45999;48.808;9.182;2022-07-09T15:11:45;5.78;;;3.45;;
146;SDS011;45999;48.808;9.182;2022-07-09T15:14:11;3.25;;;1.58;;
146;SDS011;45999;48.808;9.182;2022-07-09T15:16:38;10.05;;;8.10;;